sensor_id;sensor_type;location;lat;lon;timestamp;temperature;humidity
10883;DHT22;5494;51.796;10.952;2023-10-09T00:00:13;11.90;1.00
10883;DHT22;5494;51.796;10.952;2023-10-09T00:03:00;11.90;1.00
10883;DHT22;5494;51.796;10.952;2023-10-09T00:05:30;11.90;1.00
10883;DHT22;5494;51.796;10.952;2023-10-09T00:08:08;12.00;1.00
10883;DHT22;5494;51.796;10.952;2023-10-09T00:10:38;12.00;1.00
10883;DHT22;5494;51.796;10.952;2023-10-09T00:13:15;12.10;1.00
10883;DHT22;5494;51.796;10.952;2023-10-09T00:15:45;12.10;1.00
10883;DHT22;5494;51.796;10.952;2023-10-09T00:18:19;12.10;1.00
10883;DHT22;5494;51.796;10.952;2023-10-09T00:20:56;12.10;1.00
10883;DHT22;5494;51.796;10.952;2023-10-09T00:23:39;12.10;1.00
10883;DHT22;5494;51.796;10.952;2023-10-09T00:26:07;12.10;1.00
10883;DHT22;5494;51.796;10.952;2023-10-09T00:28:45;12.00;1.00
10883;DHT22;5494;51.796;10.952;2023-10-09T00:31:14;12.00;1.00
10883;DHT22;5494;51.796;10.952;2023-10-09T00:33:43;12.10;21.10
10883;DHT22;5494;51.796;10.952;2023-10-09T00:36:11;12.10;56.60
10883;DHT22;5494;51.796;10.952;2023-10-09T00:38:45;12.20;67.60
10883;DHT22;5494;51.796;10.952;2023-10-09T00:41:17;12.30;97.30
10883;DHT22;5494;51.796;10.952;2023-10-09T00:43:49;12.30;99.90
10883;DHT22;5494;51.796;10.952;2023-10-09T00:46:18;12.40;99.90
10883;DHT22;5494;51.796;10.952;2023-10-09T00:48:55;12.50;99.90
10883;DHT22;5494;51.796;10.952;2023-10-09T00:51:24;12.60;99.90
10883;DHT22;5494;51.796;10.952;2023-10-09T00:53:57;12.60;99.90
10883;DHT22;5494;51.796;10.952;2023-10-09T00:56:34;12.70;99.90
10883;DHT22;5494;51.796;10.952;2023-10-09T00:59:09;12.80;99.90
10883;DHT22;5494;51.796;10.952;2023-10-09T01:01:43;12.80;75.70
10883;DHT22;5494;51.796;10.952;2023-10-09T01:04:24;12.70;21.70
10883;DHT22;5494;51.796;10.952;2023-10-09T01:06:57;12.50;55.50
10883;DHT22;5494;51.796;10.952;2023-10-09T01:09:43;12.50;99.90
10883;DHT22;5494;51.796;10.952;2023-10-09T01:12:12;12.50;99.90
10883;DHT22;5494;51.796;10.952;2023-10-09T01:14:45;12.50;99.90
10883;DHT22;5494;51.796;10.952;2023-10-09T01:17:19;12.60;99.90
10883;DHT22;5494;51.796;10.952;2023-10-09T01:20:04;12.70;99.90
10883;DHT22;5494;51.796;10.952;2023-10-09T01:22:40;12.70;99.90
10883;DHT22;5494;51.796;10.952;2023-10-09T01:25:11;12.70;99.90
10883;DHT22;5494;51.796;10.952;2023-10-09T01:27:39;12.70;99.90
10883;DHT22;5494;51.796;10.952;2023-10-09T01:30:08;12.70;99.90
10883;DHT22;5494;51.796;10.952;2023-10-09T01:32:40;12.70;99.90
10883;DHT22;5494;51.796;10.952;2023-10-09T01:35:10;12.80;99.90
10883;DHT22;5494;51.796;10.952;2023-10-09T01:37:47;12.80;99.90
10883;DHT22;5494;51.796;10.952;2023-10-09T01:40:19;12.80;99.90
10883;DHT22;5494;51.796;10.952;2023-10-09T01:42:54;13.00;99.90
10883;DHT22;5494;51.796;10.952;2023-10-09T01:45:23;13.10;99.90
10883;DHT22;5494;51.796;10.952;2023-10-09T01:47:54;13.20;99.90
10883;DHT22;5494;51.796;10.952;2023-10-09T01:50:24;13.40;99.90
10883;DHT22;5494;51.796;10.952;2023-10-09T01:52:58;13.50;99.90
10883;DHT22;5494;51.796;10.952;2023-10-09T01:55:29;13.50;99.90
10883;DHT22;5494;51.796;10.952;2023-10-09T01:58:01;13.60;99.90
10883;DHT22;5494;51.796;10.952;2023-10-09T02:00:33;13.50;99.90
10883;DHT22;5494;51.796;10.952;2023-10-09T02:03:08;13.60;99.90
10883;DHT22;5494;51.796;10.952;2023-10-09T02:05:41;13.60;99.90
10883;DHT22;5494;51.796;10.952;2023-10-09T02:08:10;13.60;99.90
10883;DHT22;5494;51.796;10.952;2023-10-09T02:10:40;13.60;99.90
10883;DHT22;5494;51.796;10.952;2023-10-09T02:13:16;13.70;99.90
10883;DHT22;5494;51.796;10.952;2023-10-09T02:15:44;13.60;99.90
10883;DHT22;5494;51.796;10.952;2023-10-09T02:18:25;13.70;99.90
10883;DHT22;5494;51.796;10.952;2023-10-09T02:21:07;13.50;99.90
10883;DHT22;5494;51.796;10.952;2023-10-09T02:23:42;13.50;99.90
10883;DHT22;5494;51.796;10.952;2023-10-09T02:26:19;13.50;99.90
10883;DHT22;5494;51.796;10.952;2023-10-09T02:28:54;13.50;90.80
10883;DHT22;5494;51.796;10.952;2023-10-09T02:31:28;13.40;95.40
10883;DHT22;5494;51.796;10.952;2023-10-09T02:34:03;13.30;87.60
10883;DHT22;5494;51.796;10.952;2023-10-09T02:36:39;13.20;83.10
10883;DHT22;5494;51.796;10.952;2023-10-09T02:39:09;13.30;54.70
10883;DHT22;5494;51.796;10.952;2023-10-09T02:41:52;13.20;80.30
10883;DHT22;5494;51.796;10.952;2023-10-09T02:44:28;13.20;70.40
10883;DHT22;5494;51.796;10.952;2023-10-09T02:46:59;13.20;45.80
10883;DHT22;5494;51.796;10.952;2023-10-09T02:49:32;13.20;39.80
10883;DHT22;5494;51.796;10.952;2023-10-09T02:52:01;13.30;23.70
10883;DHT22;5494;51.796;10.952;2023-10-09T02:54:33;13.30;22.00
10883;DHT22;5494;51.796;10.952;2023-10-09T02:57:04;13.30;30.40
10883;DHT22;5494;51.796;10.952;2023-10-09T02:59:42;13.30;24.60
10883;DHT22;5494;51.796;10.952;2023-10-09T03:02:12;13.20;33.20
10883;DHT22;5494;51.796;10.952;2023-10-09T03:04:40;13.00;55.30
10883;DHT22;5494;51.796;10.952;2023-10-09T03:07:08;12.90;76.90
10883;DHT22;5494;51.796;10.952;2023-10-09T03:09:37;12.80;99.90
10883;DHT22;5494;51.796;10.952;2023-10-09T03:12:09;12.80;99.90
10883;DHT22;5494;51.796;10.952;2023-10-09T03:14:40;12.80;99.90
10883;DHT22;5494;51.796;10.952;2023-10-09T03:17:09;12.80;99.90
10883;DHT22;5494;51.796;10.952;2023-10-09T03:19:39;12.80;99.90
10883;DHT22;5494;51.796;10.952;2023-10-09T03:22:10;12.90;99.90
10883;DHT22;5494;51.796;10.952;2023-10-09T03:25:01;12.90;99.90
10883;DHT22;5494;51.796;10.952;2023-10-09T03:27:54;12.80;99.90
10883;DHT22;5494;51.796;10.952;2023-10-09T03:30:34;12.80;99.90
10883;DHT22;5494;51.796;10.952;2023-10-09T03:33:13;12.80;99.90
10883;DHT22;5494;51.796;10.952;2023-10-09T03:35:52;12.80;99.90
10883;DHT22;5494;51.796;10.952;2023-10-09T03:38:35;12.80;99.90
10883;DHT22;5494;51.796;10.952;2023-10-09T03:41:16;12.80;99.90
10883;DHT22;5494;51.796;10.952;2023-10-09T03:43:58;12.70;99.90
10883;DHT22;5494;51.796;10.952;2023-10-09T03:46:40;12.70;99.90
10883;DHT22;5494;51.796;10.952;2023-10-09T03:49:20;12.70;99.90
10883;DHT22;5494;51.796;10.952;2023-10-09T03:51:55;12.80;99.90
10883;DHT22;5494;51.796;10.952;2023-10-09T03:54:34;12.70;99.90
10883;DHT22;5494;51.796;10.952;2023-10-09T03:57:27;12.80;99.90
10883;DHT22;5494;51.796;10.952;2023-10-09T04:00:07;12.80;99.90
10883;DHT22;5494;51.796;10.952;2023-10-09T04:02:43;12.80;99.90
10883;DHT22;5494;51.796;10.952;2023-10-09T04:05:25;12.80;99.90
10883;DHT22;5494;51.796;10.952;2023-10-09T04:08:10;12.90;99.90
10883;DHT22;5494;51.796;10.952;2023-10-09T04:10:49;12.80;99.90
10883;DHT22;5494;51.796;10.952;2023-10-09T04:13:28;12.90;99.90
10883;DHT22;5494;51.796;10.952;2023-10-09T04:16:07;12.90;99.90
10883;DHT22;5494;51.796;10.952;2023-10-09T04:19:08;12.90;99.90
10883;DHT22;5494;51.796;10.952;2023-10-09T04:21:49;12.90;99.90
10883;DHT22;5494;51.796;10.952;2023-10-09T04:24:39;12.90;99.90
10883;DHT22;5494;51.796;10.952;2023-10-09T04:27:24;12.90;99.90
10883;DHT22;5494;51.796;10.952;2023-10-09T04:30:07;12.90;99.90
10883;DHT22;5494;51.796;10.952;2023-10-09T04:32:49;12.90;99.90
10883;DHT22;5494;51.796;10.952;2023-10-09T04:35:34;12.90;99.90
10883;DHT22;5494;51.796;10.952;2023-10-09T04:38:11;12.90;99.90
10883;DHT22;5494;51.796;10.952;2023-10-09T04:40:52;12.80;99.90
10883;DHT22;5494;51.796;10.952;2023-10-09T04:43:38;12.80;99.90
10883;DHT22;5494;51.796;10.952;2023-10-09T04:46:21;12.80;99.90
10883;DHT22;5494;51.796;10.952;2023-10-09T04:49:04;12.80;99.90
10883;DHT22;5494;51.796;10.952;2023-10-09T04:52:00;12.80;99.90
10883;DHT22;5494;51.796;10.952;2023-10-09T04:55:00;12.70;99.90
10883;DHT22;5494;51.796;10.952;2023-10-09T04:58:02;12.70;99.90
10883;DHT22;5494;51.796;10.952;2023-10-09T05:00:43;12.80;99.90
10883;DHT22;5494;51.796;10.952;2023-10-09T05:03:41;12.80;99.90
10883;DHT22;5494;51.796;10.952;2023-10-09T05:06:19;12.80;99.90
10883;DHT22;5494;51.796;10.952;2023-10-09T05:09:15;12.90;99.90
10883;DHT22;5494;51.796;10.952;2023-10-09T05:11:52;12.90;99.90
10883;DHT22;5494;51.796;10.952;2023-10-09T05:14:42;12.90;99.90
10883;DHT22;5494;51.796;10.952;2023-10-09T05:17:43;12.90;99.90
10883;DHT22;5494;51.796;10.952;2023-10-09T05:20:39;13.00;99.90
10883;DHT22;5494;51.796;10.952;2023-10-09T05:23:51;12.90;99.90
10883;DHT22;5494;51.796;10.952;2023-10-09T05:26:50;13.00;99.90
10883;DHT22;5494;51.796;10.952;2023-10-09T05:29:43;13.00;99.90
10883;DHT22;5494;51.796;10.952;2023-10-09T05:32:33;13.10;99.90
10883;DHT22;5494;51.796;10.952;2023-10-09T05:35:25;13.10;99.90
10883;DHT22;5494;51.796;10.952;2023-10-09T05:38:11;13.10;99.90
10883;DHT22;5494;51.796;10.952;2023-10-09T05:41:03;13.10;99.90
10883;DHT22;5494;51.796;10.952;2023-10-09T05:43:47;13.20;99.90
10883;DHT22;5494;51.796;10.952;2023-10-09T05:46:54;13.20;99.90
10883;DHT22;5494;51.796;10.952;2023-10-09T05:50:00;13.50;99.90
10883;DHT22;5494;51.796;10.952;2023-10-09T05:53:02;13.60;99.90
10883;DHT22;5494;51.796;10.952;2023-10-09T05:56:12;13.80;99.90
10883;DHT22;5494;51.796;10.952;2023-10-09T05:59:05;13.90;99.90
10883;DHT22;5494;51.796;10.952;2023-10-09T06:02:06;14.00;99.90
10883;DHT22;5494;51.796;10.952;2023-10-09T06:05:31;14.10;99.90
10883;DHT22;5494;51.796;10.952;2023-10-09T06:08:20;14.20;99.90
10883;DHT22;5494;51.796;10.952;2023-10-09T06:11:12;14.30;99.90
10883;DHT22;5494;51.796;10.952;2023-10-09T06:13:58;14.40;99.90
10883;DHT22;5494;51.796;10.952;2023-10-09T06:16:45;14.40;99.90
10883;DHT22;5494;51.796;10.952;2023-10-09T06:19:47;14.40;99.90
10883;DHT22;5494;51.796;10.952;2023-10-09T06:22:54;14.50;99.90
10883;DHT22;5494;51.796;10.952;2023-10-09T06:25:43;14.50;99.90
10883;DHT22;5494;51.796;10.952;2023-10-09T06:28:27;14.50;99.90
10883;DHT22;5494;51.796;10.952;2023-10-09T06:31:13;14.40;99.90
10883;DHT22;5494;51.796;10.952;2023-10-09T06:34:01;14.50;99.90
10883;DHT22;5494;51.796;10.952;2023-10-09T06:36:50;14.40;99.90
10883;DHT22;5494;51.796;10.952;2023-10-09T06:39:27;14.50;99.90
10883;DHT22;5494;51.796;10.952;2023-10-09T06:42:16;14.50;99.90
10883;DHT22;5494;51.796;10.952;2023-10-09T06:45:17;14.60;99.90
10883;DHT22;5494;51.796;10.952;2023-10-09T06:47:51;14.60;99.90
10883;DHT22;5494;51.796;10.952;2023-10-09T06:50:34;14.60;99.90
10883;DHT22;5494;51.796;10.952;2023-10-09T06:53:24;14.70;99.90
10883;DHT22;5494;51.796;10.952;2023-10-09T06:56:24;14.80;99.90
10883;DHT22;5494;51.796;10.952;2023-10-09T06:59:24;14.80;99.90
10883;DHT22;5494;51.796;10.952;2023-10-09T07:02:38;14.90;99.90
10883;DHT22;5494;51.796;10.952;2023-10-09T07:05:24;14.70;99.90
10883;DHT22;5494;51.796;10.952;2023-10-09T07:08:20;14.80;99.90
10883;DHT22;5494;51.796;10.952;2023-10-09T07:11:05;14.80;99.90
10883;DHT22;5494;51.796;10.952;2023-10-09T07:13:58;14.90;99.90
10883;DHT22;5494;51.796;10.952;2023-10-09T07:16:37;14.80;99.90
10883;DHT22;5494;51.796;10.952;2023-10-09T07:19:31;14.80;99.90
10883;DHT22;5494;51.796;10.952;2023-10-09T07:22:31;14.80;99.90
10883;DHT22;5494;51.796;10.952;2023-10-09T07:25:12;14.90;99.90
10883;DHT22;5494;51.796;10.952;2023-10-09T07:28:01;14.90;99.90
10883;DHT22;5494;51.796;10.952;2023-10-09T07:31:01;14.90;99.90
10883;DHT22;5494;51.796;10.952;2023-10-09T07:33:34;15.00;99.90
10883;DHT22;5494;51.796;10.952;2023-10-09T07:36:29;15.10;99.90
10883;DHT22;5494;51.796;10.952;2023-10-09T07:39:12;15.10;99.90
10883;DHT22;5494;51.796;10.952;2023-10-09T07:41:55;15.10;99.90
10883;DHT22;5494;51.796;10.952;2023-10-09T07:44:31;15.10;99.90
10883;DHT22;5494;51.796;10.952;2023-10-09T07:47:10;15.10;99.90
10883;DHT22;5494;51.796;10.952;2023-10-09T07:49:49;15.10;99.90
10883;DHT22;5494;51.796;10.952;2023-10-09T07:52:26;15.10;99.90
10883;DHT22;5494;51.796;10.952;2023-10-09T07:55:04;15.20;99.90
10883;DHT22;5494;51.796;10.952;2023-10-09T07:57:58;15.20;99.90
10883;DHT22;5494;51.796;10.952;2023-10-09T08:00:51;15.20;99.90
10883;DHT22;5494;51.796;10.952;2023-10-09T08:03:48;15.40;99.90
10883;DHT22;5494;51.796;10.952;2023-10-09T08:06:35;15.50;99.90
10883;DHT22;5494;51.796;10.952;2023-10-09T08:09:11;15.50;99.90
10883;DHT22;5494;51.796;10.952;2023-10-09T08:12:18;15.50;99.90
10883;DHT22;5494;51.796;10.952;2023-10-09T08:15:09;15.40;99.90
10883;DHT22;5494;51.796;10.952;2023-10-09T08:17:55;15.40;99.90
10883;DHT22;5494;51.796;10.952;2023-10-09T08:20:33;15.30;99.90
10883;DHT22;5494;51.796;10.952;2023-10-09T08:23:23;15.40;99.90
10883;DHT22;5494;51.796;10.952;2023-10-09T08:26:05;15.40;99.90
10883;DHT22;5494;51.796;10.952;2023-10-09T08:28:50;15.30;99.90
10883;DHT22;5494;51.796;10.952;2023-10-09T08:31:28;15.30;99.90
10883;DHT22;5494;51.796;10.952;2023-10-09T08:34:27;15.30;99.90
10883;DHT22;5494;51.796;10.952;2023-10-09T08:37:21;15.40;99.90
10883;DHT22;5494;51.796;10.952;2023-10-09T08:40:01;15.50;99.90
10883;DHT22;5494;51.796;10.952;2023-10-09T08:42:36;15.50;99.90
10883;DHT22;5494;51.796;10.952;2023-10-09T08:45:07;15.60;99.90
10883;DHT22;5494;51.796;10.952;2023-10-09T08:47:45;15.70;99.90
10883;DHT22;5494;51.796;10.952;2023-10-09T08:50:22;15.70;99.90
10883;DHT22;5494;51.796;10.952;2023-10-09T08:52:58;15.90;99.90
10883;DHT22;5494;51.796;10.952;2023-10-09T08:55:27;16.00;99.90
10883;DHT22;5494;51.796;10.952;2023-10-09T08:58:07;16.10;99.90
10883;DHT22;5494;51.796;10.952;2023-10-09T09:00:48;16.10;99.90
10883;DHT22;5494;51.796;10.952;2023-10-09T09:03:40;16.30;99.90
10883;DHT22;5494;51.796;10.952;2023-10-09T09:06:17;16.30;99.90
10883;DHT22;5494;51.796;10.952;2023-10-09T09:09:10;16.40;99.90
10883;DHT22;5494;51.796;10.952;2023-10-09T09:11:52;16.40;99.90
10883;DHT22;5494;51.796;10.952;2023-10-09T09:14:37;16.50;99.90
10883;DHT22;5494;51.796;10.952;2023-10-09T09:17:22;16.60;99.90
10883;DHT22;5494;51.796;10.952;2023-10-09T09:20:19;16.60;99.90
10883;DHT22;5494;51.796;10.952;2023-10-09T09:23:02;16.70;99.90
10883;DHT22;5494;51.796;10.952;2023-10-09T09:25:43;16.80;99.90
10883;DHT22;5494;51.796;10.952;2023-10-09T09:28:40;16.90;99.90
10883;DHT22;5494;51.796;10.952;2023-10-09T09:31:25;17.00;99.90
10883;DHT22;5494;51.796;10.952;2023-10-09T09:33:56;17.10;99.90
10883;DHT22;5494;51.796;10.952;2023-10-09T09:36:49;17.20;99.90
10883;DHT22;5494;51.796;10.952;2023-10-09T09:39:32;17.30;99.90
10883;DHT22;5494;51.796;10.952;2023-10-09T09:42:21;17.40;99.90
10883;DHT22;5494;51.796;10.952;2023-10-09T09:45:04;17.60;99.90
10883;DHT22;5494;51.796;10.952;2023-10-09T09:47:46;17.70;99.90
10883;DHT22;5494;51.796;10.952;2023-10-09T09:50:24;17.80;99.90
10883;DHT22;5494;51.796;10.952;2023-10-09T09:52:59;17.80;99.90
10883;DHT22;5494;51.796;10.952;2023-10-09T09:55:46;17.90;99.90
10883;DHT22;5494;51.796;10.952;2023-10-09T09:58:26;17.90;99.90
10883;DHT22;5494;51.796;10.952;2023-10-09T10:01:26;18.00;99.90
10883;DHT22;5494;51.796;10.952;2023-10-09T10:04:14;18.10;99.90
10883;DHT22;5494;51.796;10.952;2023-10-09T10:07:00;18.20;99.90
10883;DHT22;5494;51.796;10.952;2023-10-09T10:09:47;18.30;99.90
10883;DHT22;5494;51.796;10.952;2023-10-09T10:12:49;18.30;99.90
10883;DHT22;5494;51.796;10.952;2023-10-09T10:16:04;18.30;99.90
10883;DHT22;5494;51.796;10.952;2023-10-09T10:18:56;18.30;99.90
10883;DHT22;5494;51.796;10.952;2023-10-09T10:21:42;18.30;99.90
10883;DHT22;5494;51.796;10.952;2023-10-09T10:24:45;18.30;99.90
10883;DHT22;5494;51.796;10.952;2023-10-09T10:27:27;18.30;99.90
10883;DHT22;5494;51.796;10.952;2023-10-09T10:30:28;18.30;99.90
10883;DHT22;5494;51.796;10.952;2023-10-09T10:33:10;18.30;99.90
10883;DHT22;5494;51.796;10.952;2023-10-09T10:35:48;18.20;99.90
10883;DHT22;5494;51.796;10.952;2023-10-09T10:38:29;18.20;99.90
10883;DHT22;5494;51.796;10.952;2023-10-09T10:41:17;18.30;99.90
10883;DHT22;5494;51.796;10.952;2023-10-09T10:43:57;18.20;99.90
10883;DHT22;5494;51.796;10.952;2023-10-09T10:46:41;18.10;99.90
10883;DHT22;5494;51.796;10.952;2023-10-09T10:49:14;18.10;99.90
10883;DHT22;5494;51.796;10.952;2023-10-09T10:52:00;18.00;99.90
10883;DHT22;5494;51.796;10.952;2023-10-09T10:54:53;18.10;99.90
10883;DHT22;5494;51.796;10.952;2023-10-09T10:58:23;17.90;99.90
10883;DHT22;5494;51.796;10.952;2023-10-09T11:01:16;17.80;99.90
10883;DHT22;5494;51.796;10.952;2023-10-09T11:04:11;17.70;99.90
10883;DHT22;5494;51.796;10.952;2023-10-09T11:06:56;17.50;99.90
10883;DHT22;5494;51.796;10.952;2023-10-09T11:09:51;17.20;99.90
10883;DHT22;5494;51.796;10.952;2023-10-09T11:12:43;17.00;99.90
10883;DHT22;5494;51.796;10.952;2023-10-09T11:15:53;16.80;99.90
10883;DHT22;5494;51.796;10.952;2023-10-09T11:18:48;16.60;99.90
10883;DHT22;5494;51.796;10.952;2023-10-09T11:21:16;16.50;99.90
10883;DHT22;5494;51.796;10.952;2023-10-09T11:24:06;16.30;99.90
10883;DHT22;5494;51.796;10.952;2023-10-09T11:27:05;16.30;99.90
10883;DHT22;5494;51.796;10.952;2023-10-09T11:29:49;16.30;99.90
10883;DHT22;5494;51.796;10.952;2023-10-09T11:32:28;16.20;99.90
10883;DHT22;5494;51.796;10.952;2023-10-09T11:35:17;16.10;99.90
10883;DHT22;5494;51.796;10.952;2023-10-09T11:38:00;16.10;99.90
10883;DHT22;5494;51.796;10.952;2023-10-09T11:40:56;16.30;99.90
10883;DHT22;5494;51.796;10.952;2023-10-09T11:43:49;16.30;99.90
10883;DHT22;5494;51.796;10.952;2023-10-09T11:46:31;16.30;99.90
10883;DHT22;5494;51.796;10.952;2023-10-09T11:49:11;16.20;99.90
10883;DHT22;5494;51.796;10.952;2023-10-09T11:52:09;16.10;99.90
10883;DHT22;5494;51.796;10.952;2023-10-09T11:55:00;16.10;99.90
10883;DHT22;5494;51.796;10.952;2023-10-09T11:57:49;16.10;99.90
10883;DHT22;5494;51.796;10.952;2023-10-09T12:00:23;16.10;99.90
10883;DHT22;5494;51.796;10.952;2023-10-09T12:03:00;16.20;99.90
10883;DHT22;5494;51.796;10.952;2023-10-09T12:05:39;16.30;99.90
10883;DHT22;5494;51.796;10.952;2023-10-09T12:08:14;16.40;99.90
10883;DHT22;5494;51.796;10.952;2023-10-09T12:10:48;16.40;99.90
10883;DHT22;5494;51.796;10.952;2023-10-09T12:13:29;16.40;99.90
10883;DHT22;5494;51.796;10.952;2023-10-09T12:16:09;16.40;99.90
10883;DHT22;5494;51.796;10.952;2023-10-09T12:18:44;16.50;99.90
10883;DHT22;5494;51.796;10.952;2023-10-09T12:21:27;16.40;99.90
10883;DHT22;5494;51.796;10.952;2023-10-09T12:24:10;16.50;99.90
10883;DHT22;5494;51.796;10.952;2023-10-09T12:26:49;16.50;99.90
10883;DHT22;5494;51.796;10.952;2023-10-09T12:29:28;16.60;99.90
10883;DHT22;5494;51.796;10.952;2023-10-09T12:32:02;16.50;99.90
10883;DHT22;5494;51.796;10.952;2023-10-09T12:34:42;16.50;99.90
10883;DHT22;5494;51.796;10.952;2023-10-09T12:37:25;16.60;99.90
10883;DHT22;5494;51.796;10.952;2023-10-09T12:40:08;16.60;99.90
10883;DHT22;5494;51.796;10.952;2023-10-09T12:42:42;16.70;99.90
10883;DHT22;5494;51.796;10.952;2023-10-09T12:45:18;16.70;99.90
10883;DHT22;5494;51.796;10.952;2023-10-09T12:47:58;16.60;99.90
10883;DHT22;5494;51.796;10.952;2023-10-09T12:50:38;16.60;99.90
10883;DHT22;5494;51.796;10.952;2023-10-09T12:53:29;16.60;99.90
10883;DHT22;5494;51.796;10.952;2023-10-09T12:56:00;16.70;99.90
10883;DHT22;5494;51.796;10.952;2023-10-09T12:58:39;16.70;99.90
10883;DHT22;5494;51.796;10.952;2023-10-09T13:01:34;16.60;99.90
10883;DHT22;5494;51.796;10.952;2023-10-09T13:04:31;16.60;99.90
10883;DHT22;5494;51.796;10.952;2023-10-09T13:07:12;16.60;99.90
10883;DHT22;5494;51.796;10.952;2023-10-09T13:09:58;16.60;99.90
10883;DHT22;5494;51.796;10.952;2023-10-09T13:12:45;16.60;99.90
10883;DHT22;5494;51.796;10.952;2023-10-09T13:15:28;16.70;99.90
10883;DHT22;5494;51.796;10.952;2023-10-09T13:18:21;16.70;99.90
10883;DHT22;5494;51.796;10.952;2023-10-09T13:21:04;16.80;99.90
10883;DHT22;5494;51.796;10.952;2023-10-09T13:23:38;16.80;99.90
10883;DHT22;5494;51.796;10.952;2023-10-09T13:26:17;16.80;99.90
10883;DHT22;5494;51.796;10.952;2023-10-09T13:29:02;16.90;99.90
10883;DHT22;5494;51.796;10.952;2023-10-09T13:31:40;16.70;99.90
10883;DHT22;5494;51.796;10.952;2023-10-09T13:34:25;16.80;99.90
10883;DHT22;5494;51.796;10.952;2023-10-09T13:37:23;16.80;99.90
10883;DHT22;5494;51.796;10.952;2023-10-09T13:39:54;16.80;99.90
10883;DHT22;5494;51.796;10.952;2023-10-09T13:42:35;16.80;99.90
10883;DHT22;5494;51.796;10.952;2023-10-09T13:45:19;16.80;99.90
10883;DHT22;5494;51.796;10.952;2023-10-09T13:48:07;16.80;99.90
10883;DHT22;5494;51.796;10.952;2023-10-09T13:50:58;16.90;99.90
10883;DHT22;5494;51.796;10.952;2023-10-09T13:53:51;16.90;99.90
10883;DHT22;5494;51.796;10.952;2023-10-09T13:56:33;16.90;99.90
10883;DHT22;5494;51.796;10.952;2023-10-09T13:59:12;16.80;99.90
10883;DHT22;5494;51.796;10.952;2023-10-09T14:01:50;16.80;99.90
10883;DHT22;5494;51.796;10.952;2023-10-09T14:04:26;16.70;99.90
10883;DHT22;5494;51.796;10.952;2023-10-09T14:07:04;16.70;99.90
10883;DHT22;5494;51.796;10.952;2023-10-09T14:09:41;16.80;99.90
10883;DHT22;5494;51.796;10.952;2023-10-09T14:12:27;16.80;99.90
10883;DHT22;5494;51.796;10.952;2023-10-09T14:15:06;16.80;99.90
10883;DHT22;5494;51.796;10.952;2023-10-09T14:17:40;16.80;99.90
10883;DHT22;5494;51.796;10.952;2023-10-09T14:20:19;16.90;99.90
10883;DHT22;5494;51.796;10.952;2023-10-09T14:23:09;16.90;99.90
10883;DHT22;5494;51.796;10.952;2023-10-09T14:26:05;16.90;99.90
10883;DHT22;5494;51.796;10.952;2023-10-09T14:28:45;17.00;99.90
10883;DHT22;5494;51.796;10.952;2023-10-09T14:31:22;16.90;99.90
10883;DHT22;5494;51.796;10.952;2023-10-09T14:34:02;17.00;99.90
10883;DHT22;5494;51.796;10.952;2023-10-09T14:36:33;17.00;99.90
10883;DHT22;5494;51.796;10.952;2023-10-09T14:39:18;16.90;99.90
10883;DHT22;5494;51.796;10.952;2023-10-09T14:41:59;16.90;99.90
10883;DHT22;5494;51.796;10.952;2023-10-09T14:44:37;16.90;99.90
10883;DHT22;5494;51.796;10.952;2023-10-09T14:47:14;16.90;99.90
10883;DHT22;5494;51.796;10.952;2023-10-09T14:49:56;17.20;99.90
10883;DHT22;5494;51.796;10.952;2023-10-09T14:52:38;17.00;99.90
10883;DHT22;5494;51.796;10.952;2023-10-09T14:55:21;16.90;99.90
10883;DHT22;5494;51.796;10.952;2023-10-09T14:58:06;16.90;99.90
10883;DHT22;5494;51.796;10.952;2023-10-09T15:00:44;16.90;99.90
10883;DHT22;5494;51.796;10.952;2023-10-09T15:03:25;16.90;99.90
10883;DHT22;5494;51.796;10.952;2023-10-09T15:06:21;16.90;99.90
10883;DHT22;5494;51.796;10.952;2023-10-09T15:08:59;17.00;99.90
10883;DHT22;5494;51.796;10.952;2023-10-09T15:12:08;17.00;99.90
10883;DHT22;5494;51.796;10.952;2023-10-09T15:14:44;17.10;99.90
10883;DHT22;5494;51.796;10.952;2023-10-09T15:17:26;17.10;99.90
10883;DHT22;5494;51.796;10.952;2023-10-09T15:20:00;17.10;99.90
10883;DHT22;5494;51.796;10.952;2023-10-09T15:22:39;17.10;99.90
10883;DHT22;5494;51.796;10.952;2023-10-09T15:25:28;17.10;99.90
10883;DHT22;5494;51.796;10.952;2023-10-09T15:28:11;17.20;99.90
10883;DHT22;5494;51.796;10.952;2023-10-09T15:30:56;17.20;99.90
10883;DHT22;5494;51.796;10.952;2023-10-09T15:33:36;17.20;99.90
10883;DHT22;5494;51.796;10.952;2023-10-09T15:36:21;17.10;99.90
10883;DHT22;5494;51.796;10.952;2023-10-09T15:39:00;17.10;99.90
10883;DHT22;5494;51.796;10.952;2023-10-09T15:41:53;17.10;99.90
10883;DHT22;5494;51.796;10.952;2023-10-09T15:44:28;17.10;99.90
10883;DHT22;5494;51.796;10.952;2023-10-09T15:47:03;17.00;99.90
10883;DHT22;5494;51.796;10.952;2023-10-09T15:49:43;17.00;99.90
10883;DHT22;5494;51.796;10.952;2023-10-09T15:52:44;16.90;99.90
10883;DHT22;5494;51.796;10.952;2023-10-09T15:55:23;17.00;99.90
10883;DHT22;5494;51.796;10.952;2023-10-09T15:58:06;16.90;99.90
10883;DHT22;5494;51.796;10.952;2023-10-09T16:00:43;16.90;99.90
10883;DHT22;5494;51.796;10.952;2023-10-09T16:03:15;16.90;99.90
10883;DHT22;5494;51.796;10.952;2023-10-09T16:05:52;16.90;99.90
10883;DHT22;5494;51.796;10.952;2023-10-09T16:08:34;16.90;99.90
10883;DHT22;5494;51.796;10.952;2023-10-09T16:11:16;17.00;99.90
10883;DHT22;5494;51.796;10.952;2023-10-09T16:13:59;16.90;99.90
10883;DHT22;5494;51.796;10.952;2023-10-09T16:16:36;16.90;99.90
10883;DHT22;5494;51.796;10.952;2023-10-09T16:19:12;16.80;99.90
10883;DHT22;5494;51.796;10.952;2023-10-09T16:21:58;16.90;99.90
10883;DHT22;5494;51.796;10.952;2023-10-09T16:24:42;16.80;99.90
10883;DHT22;5494;51.796;10.952;2023-10-09T16:27:23;16.90;99.90
10883;DHT22;5494;51.796;10.952;2023-10-09T16:30:06;16.80;99.90
10883;DHT22;5494;51.796;10.952;2023-10-09T16:32:42;16.80;99.90
10883;DHT22;5494;51.796;10.952;2023-10-09T16:35:17;16.70;99.90
10883;DHT22;5494;51.796;10.952;2023-10-09T16:38:02;16.70;99.90
10883;DHT22;5494;51.796;10.952;2023-10-09T16:40:56;16.60;99.90
10883;DHT22;5494;51.796;10.952;2023-10-09T16:43:40;16.50;99.90
10883;DHT22;5494;51.796;10.952;2023-10-09T16:46:18;16.50;99.90
10883;DHT22;5494;51.796;10.952;2023-10-09T16:49:18;16.50;99.90
10883;DHT22;5494;51.796;10.952;2023-10-09T16:52:01;16.50;99.90
10883;DHT22;5494;51.796;10.952;2023-10-09T16:54:36;16.50;99.90
10883;DHT22;5494;51.796;10.952;2023-10-09T16:57:19;16.50;99.90
10883;DHT22;5494;51.796;10.952;2023-10-09T16:59:58;16.40;99.90
10883;DHT22;5494;51.796;10.952;2023-10-09T17:02:48;16.40;99.90
10883;DHT22;5494;51.796;10.952;2023-10-09T17:05:33;16.40;99.90
10883;DHT22;5494;51.796;10.952;2023-10-09T17:08:25;16.40;99.90
10883;DHT22;5494;51.796;10.952;2023-10-09T17:11:08;16.40;99.90